createdAt,value
2022-09-26T00:06:40.900Z,6.80
2022-09-26T00:13:05.177Z,6.00
2022-09-26T00:19:29.477Z,5.70
2022-09-26T00:25:53.856Z,6.30
2022-09-26T00:32:20.683Z,6.30
2022-09-26T00:38:45.183Z,5.60
2022-09-26T00:45:27.256Z,6.20
2022-09-26T00:51:51.591Z,5.80
2022-09-26T00:58:18.001Z,5.80
2022-09-26T01:04:42.278Z,5.30
2022-09-26T01:11:08.048Z,5.80
2022-09-26T01:17:32.231Z,5.60
2022-09-26T01:24:14.512Z,5.70
2022-09-26T01:31:03.031Z,5.40
2022-09-26T01:37:25.934Z,5.10
2022-09-26T01:43:53.969Z,5.30
2022-09-26T01:56:38.372Z,5.20
2022-09-26T02:03:03.065Z,5.50
2022-09-26T02:09:42.360Z,5.80
2022-09-26T02:16:12.947Z,5.20
2022-09-26T02:22:37.392Z,5.30
2022-09-26T02:29:01.848Z,5.30
2022-09-26T02:35:27.268Z,5.10
2022-09-26T02:42:15.870Z,5.00
2022-09-26T02:55:07.972Z,5.10
2022-09-26T03:01:38.497Z,4.90
2022-09-26T03:08:05.411Z,5.10
2022-09-26T03:14:29.696Z,4.90
2022-09-26T03:20:54.028Z,5.00
2022-09-26T03:27:18.735Z,4.70
2022-09-26T03:33:43.021Z,4.70
2022-09-26T03:40:07.241Z,4.70
2022-09-26T03:46:33.948Z,4.40
2022-09-26T03:53:00.597Z,4.60
2022-09-26T03:59:24.857Z,5.60
2022-09-26T04:05:49.397Z,4.70
2022-09-26T04:12:13.616Z,4.80
2022-09-26T04:18:37.913Z,4.90
2022-09-26T04:24:56.065Z,4.30
2022-09-26T04:31:22.380Z,4.20
2022-09-26T04:37:46.889Z,4.10
2022-09-26T04:44:11.176Z,4.30
2022-09-26T04:50:36.617Z,4.20
2022-09-26T04:57:03.708Z,4.20
2022-09-26T05:03:27.985Z,4.40
2022-09-26T05:09:52.282Z,3.70
2022-09-26T05:16:16.578Z,3.70
2022-09-26T05:22:40.648Z,3.60
2022-09-26T05:29:08.595Z,3.40
2022-09-26T05:35:37.026Z,3.80
2022-09-26T05:42:01.324Z,3.90
2022-09-26T05:48:25.667Z,3.90
2022-09-26T05:54:49.942Z,3.70
2022-09-26T06:01:26.531Z,3.70
2022-09-26T06:07:50.987Z,3.20
2022-09-26T06:14:30.663Z,3.90
2022-09-26T06:20:54.954Z,3.40
2022-09-26T06:27:22.031Z,3.40
2022-09-26T06:33:46.627Z,3.30
2022-09-26T06:40:14.102Z,3.60
2022-09-26T06:46:40.159Z,3.70
2022-09-26T06:53:09.886Z,3.60
2022-09-26T06:59:34.310Z,3.40
2022-09-26T07:05:51.087Z,3.00
2022-09-26T07:12:16.096Z,3.30
2022-09-26T07:18:40.961Z,3.10
2022-09-26T07:25:14.312Z,3.60
2022-09-26T07:31:38.664Z,3.70
2022-09-26T07:38:02.903Z,3.60
2022-09-26T07:45:16.387Z,3.70
2022-09-26T07:51:12.523Z,3.40
2022-09-26T07:57:36.809Z,3.50
2022-09-26T08:03:59.517Z,3.60
2022-09-26T08:10:23.762Z,3.40
2022-09-26T08:16:46.429Z,3.70
2022-09-26T08:23:10.650Z,3.90
2022-09-26T08:29:34.991Z,3.70
2022-09-26T08:35:59.301Z,4.30
2022-09-26T08:42:50.913Z,3.70
2022-09-26T08:49:33.274Z,4.30
2022-09-26T08:56:03.495Z,4.00
2022-09-26T09:02:19.437Z,4.40
2022-09-26T09:09:04.743Z,3.90
2022-09-26T09:15:39.680Z,4.50
2022-09-26T09:22:06.891Z,3.60
2022-09-26T09:28:48.718Z,3.70
2022-09-26T09:35:13.085Z,4.30
2022-09-26T09:41:42.658Z,3.50
2022-09-26T09:48:12.741Z,3.90
2022-09-26T09:54:39.791Z,4.10
2022-09-26T10:01:16.416Z,3.80
2022-09-26T10:07:40.752Z,4.30
2022-09-26T10:14:20.129Z,4.20
2022-09-26T10:20:59.687Z,4.40
2022-09-26T10:27:24.025Z,4.40
2022-09-26T10:33:48.433Z,4.70
2022-09-26T10:40:20.342Z,4.70
2022-09-26T10:46:53.737Z,4.40
2022-09-26T10:59:39.888Z,4.40
2022-09-26T11:06:24.038Z,4.30
2022-09-26T11:13:01.826Z,4.40
2022-09-26T11:19:30.635Z,4.10
2022-09-26T11:26:06.099Z,4.20
2022-09-26T11:32:30.308Z,4.30
2022-09-26T11:39:09.694Z,4.30
2022-09-26T11:45:39.190Z,4.10
2022-09-26T11:52:03.521Z,4.40
2022-09-26T11:58:36.641Z,4.60
2022-09-26T12:05:09.865Z,4.50
2022-09-26T12:11:49.543Z,4.70
2022-09-26T12:18:35.342Z,9.20
2022-09-26T12:25:05.391Z,7.00
2022-09-26T12:31:35.464Z,8.70
2022-09-26T12:38:06.116Z,7.20
2022-09-26T12:44:48.841Z,7.20
2022-09-26T12:51:15.971Z,6.00
2022-09-26T12:57:52.141Z,6.50
2022-09-26T13:04:16.494Z,6.40
2022-09-26T13:11:01.948Z,5.60
2022-09-26T13:17:41.702Z,5.50
2022-09-26T13:24:12.141Z,5.60
2022-09-26T13:30:39.443Z,5.60
2022-09-26T13:37:03.713Z,5.50
2022-09-26T13:43:42.909Z,5.10
2022-09-26T13:50:05.682Z,5.10
2022-09-26T13:56:28.661Z,6.20
2022-09-26T14:03:08.416Z,5.20
2022-09-26T14:09:47.637Z,5.20
2022-09-26T14:16:27.378Z,4.90
2022-09-26T14:22:57.435Z,4.80
2022-09-26T14:29:24.101Z,4.60
2022-09-26T14:35:55.049Z,4.10
2022-09-26T14:42:19.353Z,4.30
2022-09-26T14:48:56.376Z,4.00
2022-09-26T14:55:20.668Z,4.50
2022-09-26T15:01:45.037Z,3.50
2022-09-26T15:08:12.163Z,4.40
2022-09-26T15:14:39.513Z,3.90
2022-09-26T15:21:06.030Z,3.80
2022-09-26T15:27:30.438Z,3.90
2022-09-26T15:33:58.818Z,3.90
2022-09-26T15:40:43.783Z,3.70
2022-09-26T15:47:20.778Z,4.00
2022-09-26T15:53:52.626Z,4.40
2022-09-26T16:00:12.349Z,3.50
2022-09-26T16:06:36.833Z,3.70
2022-09-26T16:13:01.125Z,4.30
2022-09-26T16:19:28.225Z,3.90
2022-09-26T16:25:58.402Z,4.20
2022-09-26T16:32:25.600Z,3.70
2022-09-26T16:38:55.694Z,4.70
2022-09-26T16:45:11.203Z,4.10
2022-09-26T16:51:39.549Z,3.80
2022-09-26T16:58:16.424Z,3.70
2022-09-26T17:04:34.331Z,3.70
2022-09-26T17:10:52.889Z,4.30
2022-09-26T17:17:17.143Z,4.10
2022-09-26T17:23:42.406Z,4.30
2022-09-26T17:30:06.986Z,3.80
2022-09-26T17:36:31.198Z,4.20
2022-09-26T17:42:55.976Z,4.40
2022-09-26T17:49:26.748Z,4.20
2022-09-26T17:55:49.793Z,3.70
2022-09-26T18:02:23.839Z,3.80
2022-09-26T18:08:48.247Z,4.40
2022-09-26T18:15:12.875Z,4.30
2022-09-26T18:21:37.326Z,4.20
2022-09-26T18:28:01.706Z,4.30
2022-09-26T18:34:26.021Z,4.50
2022-09-26T18:40:56.053Z,4.30
2022-09-26T18:47:20.440Z,4.40
2022-09-26T18:53:44.755Z,4.40
2022-09-26T19:00:09.037Z,4.80
2022-09-26T19:06:35.299Z,5.20
2022-09-26T19:12:59.627Z,5.30
2022-09-26T19:19:23.958Z,5.00
2022-09-26T19:25:49.338Z,5.00
2022-09-26T19:32:14.012Z,5.20
2022-09-26T19:38:40.825Z,4.60
2022-09-26T19:45:05.182Z,4.80
2022-09-26T19:51:29.477Z,4.70
2022-09-26T19:57:56.293Z,4.60
2022-09-26T20:04:20.553Z,4.90
2022-09-26T20:10:47.810Z,4.20
2022-09-26T20:17:12.147Z,5.20
2022-09-26T20:23:36.493Z,4.80
2022-09-26T20:29:59.586Z,4.60
2022-09-26T20:36:23.904Z,4.70
2022-09-26T20:42:48.112Z,4.60
2022-09-26T20:49:12.493Z,4.60
2022-09-26T20:55:39.603Z,4.60
2022-09-26T21:02:09.328Z,4.30
2022-09-26T21:08:34.849Z,4.30
2022-09-26T21:14:59.238Z,4.50
2022-09-26T21:21:29.568Z,4.20
2022-09-26T21:27:57.917Z,4.10
2022-09-26T21:34:22.209Z,3.90
2022-09-26T21:40:46.695Z,4.10
2022-09-26T21:47:11.030Z,3.80
2022-09-26T21:53:36.296Z,4.00
2022-09-26T22:00:00.573Z,4.10
2022-09-26T22:06:24.781Z,3.70
2022-09-26T22:12:49.140Z,3.50
2022-09-26T22:19:13.483Z,3.40
2022-09-26T22:25:42.083Z,4.10
2022-09-26T22:32:07.250Z,3.50
2022-09-26T22:38:32.645Z,3.50
2022-09-26T22:44:58.851Z,3.60
2022-09-26T22:51:33.302Z,3.90
2022-09-26T22:57:58.627Z,3.90
2022-09-26T23:04:22.937Z,3.60
2022-09-26T23:10:47.262Z,4.00
2022-09-26T23:17:11.641Z,3.90
2022-09-26T23:23:37.531Z,3.90
2022-09-26T23:30:01.824Z,4.10
2022-09-26T23:36:26.017Z,3.90
2022-09-26T23:42:50.345Z,4.20
2022-09-26T23:49:16.034Z,3.80
2022-09-26T23:55:40.399Z,3.90
